sensor_id;sensor_type;location;lat;lon;timestamp;pressure;altitude;pressure_sealevel;temperature;humidity
17936;BME280;9093;52.062;4.508;2023-07-30T00:00:10;101142.38;;;18.99;68.54
17936;BME280;9093;52.062;4.508;2023-07-30T00:02:50;101149.50;;;19.00;68.67
17936;BME280;9093;52.062;4.508;2023-07-30T00:05:31;101145.09;;;18.99;68.45
17936;BME280;9093;52.062;4.508;2023-07-30T00:08:11;101145.94;;;19.00;68.54
17936;BME280;9093;52.062;4.508;2023-07-30T00:10:51;101143.25;;;19.00;68.93
17936;BME280;9093;52.062;4.508;2023-07-30T00:13:31;101145.81;;;19.01;68.68
17936;BME280;9093;52.062;4.508;2023-07-30T00:16:12;101140.13;;;19.04;68.84
17936;BME280;9093;52.062;4.508;2023-07-30T00:18:52;101137.44;;;19.04;68.92
17936;BME280;9093;52.062;4.508;2023-07-30T00:21:32;101133.88;;;19.04;68.82
17936;BME280;9093;52.062;4.508;2023-07-30T00:24:13;101141.28;;;19.02;68.89
17936;BME280;9093;52.062;4.508;2023-07-30T00:26:53;101149.38;;;19.02;69.31
17936;BME280;9093;52.062;4.508;2023-07-30T00:29:34;101154.66;;;19.03;68.98
17936;BME280;9093;52.062;4.508;2023-07-30T00:32:14;101152.97;;;19.02;69.17
17936;BME280;9093;52.062;4.508;2023-07-30T00:34:56;101155.50;;;19.04;69.13
17936;BME280;9093;52.062;4.508;2023-07-30T00:37:37;101155.50;;;19.04;69.29
17936;BME280;9093;52.062;4.508;2023-07-30T00:40:17;101156.38;;;19.04;69.32
17936;BME280;9093;52.062;4.508;2023-07-30T00:42:57;101161.53;;;19.07;69.10
17936;BME280;9093;52.062;4.508;2023-07-30T00:45:40;101156.88;;;19.09;69.34
17936;BME280;9093;52.062;4.508;2023-07-30T00:48:20;101168.41;;;19.11;69.23
17936;BME280;9093;52.062;4.508;2023-07-30T00:51:01;101166.97;;;19.07;69.19
17936;BME280;9093;52.062;4.508;2023-07-30T00:53:41;101169.66;;;19.07;69.51
17936;BME280;9093;52.062;4.508;2023-07-30T00:56:22;101168.69;;;19.08;69.51
17936;BME280;9093;52.062;4.508;2023-07-30T00:59:02;101172.38;;;19.07;69.41
17936;BME280;9093;52.062;4.508;2023-07-30T01:01:45;101166.97;;;19.07;69.35
17936;BME280;9093;52.062;4.508;2023-07-30T01:04:27;101172.38;;;19.07;69.94
17936;BME280;9093;52.062;4.508;2023-07-30T01:07:07;101165.97;;;19.08;69.84
17936;BME280;9093;52.062;4.508;2023-07-30T01:09:47;101169.53;;;19.09;69.88
17936;BME280;9093;52.062;4.508;2023-07-30T01:12:29;101173.81;;;19.11;69.73
17936;BME280;9093;52.062;4.508;2023-07-30T01:15:10;101175.53;;;19.12;69.71
17936;BME280;9093;52.062;4.508;2023-07-30T01:17:52;101178.38;;;19.11;69.92
17936;BME280;9093;52.062;4.508;2023-07-30T01:20:33;101182.91;;;19.10;70.14
17936;BME280;9093;52.062;4.508;2023-07-30T01:23:13;101172.09;;;19.10;69.95
17936;BME280;9093;52.062;4.508;2023-07-30T01:26:01;101169.53;;;19.09;70.30
17936;BME280;9093;52.062;4.508;2023-07-30T01:28:46;101177.50;;;19.10;70.05
17936;BME280;9093;52.062;4.508;2023-07-30T01:31:30;101177.50;;;19.10;70.31
17936;BME280;9093;52.062;4.508;2023-07-30T01:34:12;101167.53;;;19.11;70.35
17936;BME280;9093;52.062;4.508;2023-07-30T01:36:53;101173.81;;;19.11;70.21
17936;BME280;9093;52.062;4.508;2023-07-30T01:39:36;101179.22;;;19.11;70.50
17936;BME280;9093;52.062;4.508;2023-07-30T01:42:18;101170.41;;;19.09;70.57
17936;BME280;9093;52.062;4.508;2023-07-30T01:44:58;101180.22;;;19.10;70.50
17936;BME280;9093;52.062;4.508;2023-07-30T01:47:39;101175.81;;;19.09;70.44
17936;BME280;9093;52.062;4.508;2023-07-30T01:50:19;101183.78;;;19.11;70.60
17936;BME280;9093;52.062;4.508;2023-07-30T01:52:59;101186.38;;;19.12;70.75
17936;BME280;9093;52.062;4.508;2023-07-30T01:55:40;101181.22;;;19.09;70.70
17936;BME280;9093;52.062;4.508;2023-07-30T01:58:23;101186.63;;;19.09;70.81
17936;BME280;9093;52.062;4.508;2023-07-30T02:01:03;101184.91;;;19.08;70.80
17936;BME280;9093;52.062;4.508;2023-07-30T02:03:44;101189.19;;;19.11;70.91
17936;BME280;9093;52.062;4.508;2023-07-30T02:06:24;101189.34;;;19.09;70.63
17936;BME280;9093;52.062;4.508;2023-07-30T02:09:04;101188.34;;;19.10;70.95
17936;BME280;9093;52.062;4.508;2023-07-30T02:11:45;101181.34;;;19.08;71.01
17936;BME280;9093;52.062;4.508;2023-07-30T02:14:25;101186.38;;;19.12;70.87
17936;BME280;9093;52.062;4.508;2023-07-30T02:17:05;101181.94;;;19.11;70.75
17936;BME280;9093;52.062;4.508;2023-07-30T02:19:46;101184.63;;;19.11;71.04
17936;BME280;9093;52.062;4.508;2023-07-30T02:22:26;101180.94;;;19.12;71.13
17936;BME280;9093;52.062;4.508;2023-07-30T02:25:06;101181.06;;;19.11;70.89
17936;BME280;9093;52.062;4.508;2023-07-30T02:27:49;101171.38;;;19.08;71.19
17936;BME280;9093;52.062;4.508;2023-07-30T02:30:29;101172.94;;;19.11;71.24
17936;BME280;9093;52.062;4.508;2023-07-30T02:33:10;101179.22;;;19.11;71.33
17936;BME280;9093;52.062;4.508;2023-07-30T02:35:50;101170.41;;;19.09;71.27
17936;BME280;9093;52.062;4.508;2023-07-30T02:38:30;101175.53;;;19.12;70.96
17936;BME280;9093;52.062;4.508;2023-07-30T02:41:11;101180.94;;;19.12;70.99
17936;BME280;9093;52.062;4.508;2023-07-30T02:43:51;101176.53;;;19.11;71.07
17936;BME280;9093;52.062;4.508;2023-07-30T02:46:31;101172.84;;;19.12;71.24
17936;BME280;9093;52.062;4.508;2023-07-30T02:49:11;101172.09;;;19.10;71.34
17936;BME280;9093;52.062;4.508;2023-07-30T02:51:52;101169.25;;;19.12;71.32
17936;BME280;9093;52.062;4.508;2023-07-30T02:54:32;101164.72;;;19.12;71.29
17936;BME280;9093;52.062;4.508;2023-07-30T02:57:12;101173.56;;;19.14;71.25
17936;BME280;9093;52.062;4.508;2023-07-30T02:59:53;101166.31;;;19.15;71.23
17936;BME280;9093;52.062;4.508;2023-07-30T03:02:33;101159.88;;;19.16;71.02
17936;BME280;9093;52.062;4.508;2023-07-30T03:05:13;101159.06;;;19.15;71.20
17936;BME280;9093;52.062;4.508;2023-07-30T03:07:54;101159.06;;;19.15;71.18
17936;BME280;9093;52.062;4.508;2023-07-30T03:10:36;101166.16;;;19.16;71.18
17936;BME280;9093;52.062;4.508;2023-07-30T03:13:16;101153.66;;;19.15;71.42
17936;BME280;9093;52.062;4.508;2023-07-30T03:15:57;101159.06;;;19.15;71.33
17936;BME280;9093;52.062;4.508;2023-07-30T03:18:37;101175.28;;;19.15;71.17
17936;BME280;9093;52.062;4.508;2023-07-30T03:21:17;101171.56;;;19.16;71.49
17936;BME280;9093;52.062;4.508;2023-07-30T03:23:58;101176.97;;;19.16;71.01
17936;BME280;9093;52.062;4.508;2023-07-30T03:26:38;101176.97;;;19.16;71.29
17936;BME280;9093;52.062;4.508;2023-07-30T03:29:18;101171.72;;;19.15;71.10
17936;BME280;9093;52.062;4.508;2023-07-30T03:31:58;101169.88;;;19.15;71.05
17936;BME280;9093;52.062;4.508;2023-07-30T03:34:39;101156.34;;;19.15;70.98
17936;BME280;9093;52.062;4.508;2023-07-30T03:37:19;101172.84;;;19.12;70.74
17936;BME280;9093;52.062;4.508;2023-07-30T03:39:59;101182.91;;;19.10;70.43
17936;BME280;9093;52.062;4.508;2023-07-30T03:42:40;101171.38;;;19.08;70.22
17936;BME280;9093;52.062;4.508;2023-07-30T03:45:20;101166.97;;;19.07;70.02
17936;BME280;9093;52.062;4.508;2023-07-30T03:48:00;101171.63;;;19.05;70.03
17936;BME280;9093;52.062;4.508;2023-07-30T03:50:41;101178.03;;;19.04;69.77
17936;BME280;9093;52.062;4.508;2023-07-30T03:53:21;101168.34;;;19.02;69.86
17936;BME280;9093;52.062;4.508;2023-07-30T03:56:02;101181.00;;;19.01;69.66
17936;BME280;9093;52.062;4.508;2023-07-30T03:58:42;101185.56;;;19.01;69.25
17936;BME280;9093;52.062;4.508;2023-07-30T04:01:22;101183.72;;;19.01;69.12
17936;BME280;9093;52.062;4.508;2023-07-30T04:04:02;101183.94;;;18.98;69.21
17936;BME280;9093;52.062;4.508;2023-07-30T04:06:43;101184.94;;;18.97;68.58
17936;BME280;9093;52.062;4.508;2023-07-30T04:09:23;101185.94;;;18.96;68.26
17936;BME280;9093;52.062;4.508;2023-07-30T04:12:04;101174.25;;;18.96;68.31
17936;BME280;9093;52.062;4.508;2023-07-30T04:14:44;101181.63;;;18.94;68.12
17936;BME280;9093;52.062;4.508;2023-07-30T04:17:24;101184.22;;;18.95;67.79
17936;BME280;9093;52.062;4.508;2023-07-30T04:20:05;101192.34;;;18.95;67.79
17936;BME280;9093;52.062;4.508;2023-07-30T04:22:45;101185.09;;;18.96;67.69
17936;BME280;9093;52.062;4.508;2023-07-30T04:25:26;101188.88;;;18.93;67.34
17936;BME280;9093;52.062;4.508;2023-07-30T04:28:06;101187.91;;;18.94;67.26
17936;BME280;9093;52.062;4.508;2023-07-30T04:30:46;101182.50;;;18.94;67.28
17936;BME280;9093;52.062;4.508;2023-07-30T04:33:27;101185.94;;;18.96;67.02
17936;BME280;9093;52.062;4.508;2023-07-30T04:36:07;101188.66;;;18.96;66.80
17936;BME280;9093;52.062;4.508;2023-07-30T04:38:48;101184.94;;;18.97;66.99
17936;BME280;9093;52.062;4.508;2023-07-30T04:41:28;101186.53;;;19.00;66.76
17936;BME280;9093;52.062;4.508;2023-07-30T04:44:08;101188.38;;;18.99;66.61
17936;BME280;9093;52.062;4.508;2023-07-30T04:46:49;101188.38;;;18.99;66.52
17936;BME280;9093;52.062;4.508;2023-07-30T04:49:29;101191.81;;;19.01;66.25
17936;BME280;9093;52.062;4.508;2023-07-30T04:52:10;101191.09;;;18.99;66.22
17936;BME280;9093;52.062;4.508;2023-07-30T04:54:50;101191.09;;;18.99;65.93
17936;BME280;9093;52.062;4.508;2023-07-30T04:57:30;101195.50;;;19.00;66.04
17936;BME280;9093;52.062;4.508;2023-07-30T05:00:11;101186.53;;;19.00;65.66
17936;BME280;9093;52.062;4.508;2023-07-30T05:02:51;101193.66;;;19.01;65.57
17936;BME280;9093;52.062;4.508;2023-07-30T05:05:32;101199.94;;;19.01;65.33
17936;BME280;9093;52.062;4.508;2023-07-30T05:08:12;101199.94;;;19.01;65.69
17936;BME280;9093;52.062;4.508;2023-07-30T05:10:52;101195.41;;;19.02;65.65
17936;BME280;9093;52.062;4.508;2023-07-30T05:13:33;101195.50;;;19.00;65.46
17936;BME280;9093;52.062;4.508;2023-07-30T05:16:13;101200.66;;;19.03;65.37
17936;BME280;9093;52.062;4.508;2023-07-30T05:18:53;101211.25;;;19.06;65.34
17936;BME280;9093;52.062;4.508;2023-07-30T05:21:34;101204.56;;;19.10;65.60
17936;BME280;9093;52.062;4.508;2023-07-30T05:24:14;101206.06;;;19.14;65.09
17936;BME280;9093;52.062;4.508;2023-07-30T05:26:54;101214.03;;;19.16;65.31
17936;BME280;9093;52.062;4.508;2023-07-30T05:29:34;101209.47;;;19.16;65.27
17936;BME280;9093;52.062;4.508;2023-07-30T05:32:15;101207.50;;;19.18;65.27
17936;BME280;9093;52.062;4.508;2023-07-30T05:34:55;101215.38;;;19.21;65.34
17936;BME280;9093;52.062;4.508;2023-07-30T05:37:35;101208.25;;;19.20;65.78
17936;BME280;9093;52.062;4.508;2023-07-30T05:40:16;101212.69;;;19.21;65.60
17936;BME280;9093;52.062;4.508;2023-07-30T05:42:56;101205.25;;;19.23;65.38
17936;BME280;9093;52.062;4.508;2023-07-30T05:45:37;101199.59;;;19.26;65.90
17936;BME280;9093;52.062;4.508;2023-07-30T05:48:17;101199.22;;;19.31;65.72
17936;BME280;9093;52.062;4.508;2023-07-30T05:50:57;101200.53;;;19.37;65.88
17936;BME280;9093;52.062;4.508;2023-07-30T05:53:38;101197.69;;;19.38;66.09
17936;BME280;9093;52.062;4.508;2023-07-30T05:56:18;101207.44;;;19.41;66.17
17936;BME280;9093;52.062;4.508;2023-07-30T05:59:00;101205.41;;;19.43;66.29
17936;BME280;9093;52.062;4.508;2023-07-30T06:01:40;101197.31;;;19.43;66.43
17936;BME280;9093;52.062;4.508;2023-07-30T06:04:20;101198.28;;;19.42;66.83
17936;BME280;9093;52.062;4.508;2023-07-30T06:07:02;101200.00;;;19.43;66.80
17936;BME280;9093;52.062;4.508;2023-07-30T06:09:43;101202.72;;;19.43;66.81
17936;BME280;9093;52.062;4.508;2023-07-30T06:12:25;101195.72;;;19.40;67.02
17936;BME280;9093;52.062;4.508;2023-07-30T06:15:06;101186.88;;;19.38;66.97
17936;BME280;9093;52.062;4.508;2023-07-30T06:17:47;101205.69;;;19.40;67.11
17936;BME280;9093;52.062;4.508;2023-07-30T06:20:28;101205.81;;;19.38;67.23
17936;BME280;9093;52.062;4.508;2023-07-30T06:23:08;101194.25;;;19.36;67.26
17936;BME280;9093;52.062;4.508;2023-07-30T06:25:48;101203.25;;;19.37;67.63
17936;BME280;9093;52.062;4.508;2023-07-30T06:28:29;101211.38;;;19.37;67.71
17936;BME280;9093;52.062;4.508;2023-07-30T06:31:09;101199.44;;;19.39;67.68
17936;BME280;9093;52.062;4.508;2023-07-30T06:33:49;101205.69;;;19.40;67.61
17936;BME280;9093;52.062;4.508;2023-07-30T06:36:30;101205.41;;;19.43;67.97
17936;BME280;9093;52.062;4.508;2023-07-30T06:39:10;101199.78;;;19.46;67.60
17936;BME280;9093;52.062;4.508;2023-07-30T06:41:50;101196.19;;;19.45;67.74
17936;BME280;9093;52.062;4.508;2023-07-30T06:44:31;101199.16;;;19.42;67.86
17936;BME280;9093;52.062;4.508;2023-07-30T06:47:11;101213.09;;;19.38;67.84
17936;BME280;9093;52.062;4.508;2023-07-30T06:49:51;101217.53;;;19.39;68.15
17936;BME280;9093;52.062;4.508;2023-07-30T06:52:32;101214.53;;;19.42;68.09
17936;BME280;9093;52.062;4.508;2023-07-30T06:55:12;101213.53;;;19.43;67.89
17936;BME280;9093;52.062;4.508;2023-07-30T06:57:52;101209.41;;;19.39;67.69
17936;BME280;9093;52.062;4.508;2023-07-30T07:00:32;101212.34;;;19.36;68.12
17936;BME280;9093;52.062;4.508;2023-07-30T07:03:13;101216.44;;;19.30;68.09
17936;BME280;9093;52.062;4.508;2023-07-30T07:05:56;101206.91;;;19.15;68.20
17936;BME280;9093;52.062;4.508;2023-07-30T07:08:37;101217.41;;;18.97;68.56
17936;BME280;9093;52.062;4.508;2023-07-30T07:11:20;101236.63;;;18.94;68.95
17936;BME280;9093;52.062;4.508;2023-07-30T07:14:00;101243.28;;;18.79;69.24
17936;BME280;9093;52.062;4.508;2023-07-30T07:16:41;101232.69;;;18.54;69.48
17936;BME280;9093;52.062;4.508;2023-07-30T07:19:21;101243.03;;;18.37;69.91
17936;BME280;9093;52.062;4.508;2023-07-30T07:22:05;101237.84;;;18.34;69.87
17936;BME280;9093;52.062;4.508;2023-07-30T07:24:45;101245.75;;;18.37;69.80
17936;BME280;9093;52.062;4.508;2023-07-30T07:27:26;101251.63;;;18.42;70.11
17936;BME280;9093;52.062;4.508;2023-07-30T07:30:07;101247.84;;;18.45;69.68
17936;BME280;9093;52.062;4.508;2023-07-30T07:32:47;101259.50;;;18.45;69.89
17936;BME280;9093;52.062;4.508;2023-07-30T07:35:30;101253.84;;;18.48;70.02
17936;BME280;9093;52.062;4.508;2023-07-30T07:38:11;101263.69;;;18.49;69.90
17936;BME280;9093;52.062;4.508;2023-07-30T07:40:51;101259.13;;;18.50;69.83
17936;BME280;9093;52.062;4.508;2023-07-30T07:43:32;101251.88;;;18.51;69.82
17936;BME280;9093;52.062;4.508;2023-07-30T07:46:12;101258.00;;;18.53;69.65
17936;BME280;9093;52.062;4.508;2023-07-30T07:48:53;101261.00;;;18.61;69.63
17936;BME280;9093;52.062;4.508;2023-07-30T07:51:33;101265.91;;;18.67;69.38
17936;BME280;9093;52.062;4.508;2023-07-30T07:54:14;101278.81;;;18.74;69.33
17936;BME280;9093;52.062;4.508;2023-07-30T07:56:54;101268.59;;;18.78;69.22
17936;BME280;9093;52.062;4.508;2023-07-30T07:59:35;101276.25;;;18.84;69.32
17936;BME280;9093;52.062;4.508;2023-07-30T08:02:15;101282.13;;;18.89;69.00
17936;BME280;9093;52.062;4.508;2023-07-30T08:04:55;101284.69;;;18.91;68.84
17936;BME280;9093;52.062;4.508;2023-07-30T08:07:36;101283.34;;;18.96;68.96
17936;BME280;9093;52.062;4.508;2023-07-30T08:10:16;101291.22;;;18.99;68.74
17936;BME280;9093;52.062;4.508;2023-07-30T08:12:56;101291.22;;;18.99;68.72
17936;BME280;9093;52.062;4.508;2023-07-30T08:15:37;101290.22;;;19.00;68.93
17936;BME280;9093;52.062;4.508;2023-07-30T08:18:17;101299.31;;;18.99;68.63
17936;BME280;9093;52.062;4.508;2023-07-30T08:20:57;101283.34;;;18.96;68.43
17936;BME280;9093;52.062;4.508;2023-07-30T08:23:38;101283.34;;;18.96;68.45
17936;BME280;9093;52.062;4.508;2023-07-30T08:26:18;101290.22;;;19.00;68.34
17936;BME280;9093;52.062;4.508;2023-07-30T08:28:58;101282.00;;;19.02;68.58
17936;BME280;9093;52.062;4.508;2023-07-30T08:31:38;101272.28;;;18.99;68.59
17936;BME280;9093;52.062;4.508;2023-07-30T08:34:21;101274.72;;;19.02;68.52
17936;BME280;9093;52.062;4.508;2023-07-30T08:37:02;101276.59;;;19.02;68.66
17936;BME280;9093;52.062;4.508;2023-07-30T08:39:42;101273.88;;;19.02;68.84
17936;BME280;9093;52.062;4.508;2023-07-30T08:42:22;101289.72;;;19.06;68.47
17936;BME280;9093;52.062;4.508;2023-07-30T08:45:06;101270.03;;;19.15;68.27
17936;BME280;9093;52.062;4.508;2023-07-30T08:47:47;101275.66;;;19.23;68.23
17936;BME280;9093;52.062;4.508;2023-07-30T08:50:27;101277.72;;;19.31;68.27
17936;BME280;9093;52.062;4.508;2023-07-30T08:53:08;101296.16;;;19.37;68.01
17936;BME280;9093;52.062;4.508;2023-07-30T08:55:49;101274.09;;;19.42;67.65
17936;BME280;9093;52.062;4.508;2023-07-30T08:58:32;101287.03;;;19.49;67.60
17936;BME280;9093;52.062;4.508;2023-07-30T09:01:16;101285.66;;;19.55;67.40
17936;BME280;9093;52.062;4.508;2023-07-30T09:03:58;101290.84;;;19.58;66.98
17936;BME280;9093;52.062;4.508;2023-07-30T09:06:42;101284.56;;;19.57;66.94
17936;BME280;9093;52.062;4.508;2023-07-30T09:09:22;101296.25;;;19.58;66.75
17936;BME280;9093;52.062;4.508;2023-07-30T09:12:03;101293.53;;;19.58;66.88
17936;BME280;9093;52.062;4.508;2023-07-30T09:14:50;101300.47;;;19.51;66.58
17936;BME280;9093;52.062;4.508;2023-07-30T09:17:31;101293.94;;;19.53;66.32
17936;BME280;9093;52.062;4.508;2023-07-30T09:20:11;101297.25;;;19.57;66.38
17936;BME280;9093;52.062;4.508;2023-07-30T09:22:52;101312.50;;;19.58;66.18
17936;BME280;9093;52.062;4.508;2023-07-30T09:25:33;101307.09;;;19.58;66.06
17936;BME280;9093;52.062;4.508;2023-07-30T09:28:13;101319.88;;;19.56;65.64
17936;BME280;9093;52.062;4.508;2023-07-30T09:31:03;101306.63;;;19.53;65.02
17936;BME280;9093;52.062;4.508;2023-07-30T09:33:44;101313.59;;;19.55;65.13
17936;BME280;9093;52.062;4.508;2023-07-30T09:36:24;101312.75;;;19.55;65.16
17936;BME280;9093;52.062;4.508;2023-07-30T09:39:14;101323.56;;;19.55;65.08
17936;BME280;9093;52.062;4.508;2023-07-30T09:42:00;101325.56;;;19.53;64.96
17936;BME280;9093;52.062;4.508;2023-07-30T09:44:40;101324.09;;;19.49;64.53
17936;BME280;9093;52.062;4.508;2023-07-30T09:47:21;101340.63;;;19.46;64.42
17936;BME280;9093;52.062;4.508;2023-07-30T09:50:02;101344.28;;;19.45;64.46
17936;BME280;9093;52.062;4.508;2023-07-30T09:52:43;101332.50;;;19.46;64.35
17936;BME280;9093;52.062;4.508;2023-07-30T09:55:24;101340.34;;;19.49;64.43
17936;BME280;9093;52.062;4.508;2023-07-30T09:58:04;101332.69;;;19.54;64.34
17936;BME280;9093;52.062;4.508;2023-07-30T10:00:46;101339.31;;;19.61;64.60
17936;BME280;9093;52.062;4.508;2023-07-30T10:03:28;101339.66;;;19.67;64.31
17936;BME280;9093;52.062;4.508;2023-07-30T10:06:10;101342.00;;;19.72;64.16
17936;BME280;9093;52.062;4.508;2023-07-30T10:08:53;101350.31;;;19.80;63.99
17936;BME280;9093;52.062;4.508;2023-07-30T10:11:36;101371.50;;;19.86;63.63
17936;BME280;9093;52.062;4.508;2023-07-30T10:14:21;101359.88;;;19.95;62.88
17936;BME280;9093;52.062;4.508;2023-07-30T10:17:02;101336.69;;;20.02;62.70
17936;BME280;9093;52.062;4.508;2023-07-30T10:19:47;101348.84;;;20.08;62.41
17936;BME280;9093;52.062;4.508;2023-07-30T10:22:28;101357.56;;;20.12;62.24
17936;BME280;9093;52.062;4.508;2023-07-30T10:25:12;101364.84;;;20.11;62.67
17936;BME280;9093;52.062;4.508;2023-07-30T10:27:53;101379.75;;;20.17;62.61
17936;BME280;9093;52.062;4.508;2023-07-30T10:30:33;101364.94;;;20.21;62.61
17936;BME280;9093;52.062;4.508;2023-07-30T10:33:15;101389.47;;;20.19;62.24
17936;BME280;9093;52.062;4.508;2023-07-30T10:35:56;101394.75;;;20.21;62.20
17936;BME280;9093;52.062;4.508;2023-07-30T10:38:36;101387.72;;;20.18;62.03
17936;BME280;9093;52.062;4.508;2023-07-30T10:41:18;101389.34;;;20.21;62.05
17936;BME280;9093;52.062;4.508;2023-07-30T10:43:59;101393.78;;;20.22;61.88
17936;BME280;9093;52.062;4.508;2023-07-30T10:46:39;101389.53;;;20.29;61.75
17936;BME280;9093;52.062;4.508;2023-07-30T10:49:20;101402.44;;;20.36;61.97
17936;BME280;9093;52.062;4.508;2023-07-30T10:52:00;101391.94;;;20.43;61.82
17936;BME280;9093;52.062;4.508;2023-07-30T10:54:40;101385.00;;;20.50;61.43
17936;BME280;9093;52.062;4.508;2023-07-30T10:57:21;101386.19;;;20.57;61.67
17936;BME280;9093;52.062;4.508;2023-07-30T11:00:02;101393.53;;;20.66;61.44
17936;BME280;9093;52.062;4.508;2023-07-30T11:02:42;101393.00;;;20.72;61.35
17936;BME280;9093;52.062;4.508;2023-07-30T11:05:23;101410.25;;;20.71;61.29
17936;BME280;9093;52.062;4.508;2023-07-30T11:08:05;101405.09;;;20.68;61.40
17936;BME280;9093;52.062;4.508;2023-07-30T11:10:46;101400.69;;;20.67;61.20
17936;BME280;9093;52.062;4.508;2023-07-30T11:13:30;101393.38;;;20.68;60.95
17936;BME280;9093;52.062;4.508;2023-07-30T11:16:15;101411.13;;;20.72;61.20
17936;BME280;9093;52.062;4.508;2023-07-30T11:18:56;101403.56;;;20.75;61.09
17936;BME280;9093;52.062;4.508;2023-07-30T11:21:44;101413.44;;;20.76;60.93
17936;BME280;9093;52.062;4.508;2023-07-30T11:24:34;101398.88;;;20.77;60.92
17936;BME280;9093;52.062;4.508;2023-07-30T11:27:14;101405.47;;;20.84;61.08
17936;BME280;9093;52.062;4.508;2023-07-30T11:29:58;101409.63;;;20.88;61.22
17936;BME280;9093;52.062;4.508;2023-07-30T11:32:38;101405.69;;;20.93;60.94
17936;BME280;9093;52.062;4.508;2023-07-30T11:35:19;101417.97;;;20.97;61.13
17936;BME280;9093;52.062;4.508;2023-07-30T11:37:59;101420.16;;;21.03;61.04
17936;BME280;9093;52.062;4.508;2023-07-30T11:40:40;101417.13;;;21.06;60.79
17936;BME280;9093;52.062;4.508;2023-07-30T11:43:21;101411.47;;;21.09;60.88
17936;BME280;9093;52.062;4.508;2023-07-30T11:46:13;101428.75;;;21.08;61.01
17936;BME280;9093;52.062;4.508;2023-07-30T11:49:11;101430.00;;;21.04;61.10
17936;BME280;9093;52.062;4.508;2023-07-30T11:52:05;101418.41;;;21.02;60.76
17936;BME280;9093;52.062;4.508;2023-07-30T11:54:46;101424.59;;;21.04;60.79
17936;BME280;9093;52.062;4.508;2023-07-30T11:57:34;101427.75;;;21.09;60.65
17936;BME280;9093;52.062;4.508;2023-07-30T12:00:14;101422.56;;;21.06;60.72
17936;BME280;9093;52.062;4.508;2023-07-30T12:02:55;101421.13;;;21.02;60.19
17936;BME280;9093;52.062;4.508;2023-07-30T12:05:38;101421.13;;;21.02;60.16
17936;BME280;9093;52.062;4.508;2023-07-30T12:08:25;101419.59;;;21.09;60.17
17936;BME280;9093;52.062;4.508;2023-07-30T12:11:08;101428.09;;;21.15;59.96
17936;BME280;9093;52.062;4.508;2023-07-30T12:13:48;101425.56;;;21.23;59.58
17936;BME280;9093;52.062;4.508;2023-07-30T12:16:30;101428.59;;;21.30;59.20
17936;BME280;9093;52.062;4.508;2023-07-30T12:19:10;101420.44;;;21.30;59.05
17936;BME280;9093;52.062;4.508;2023-07-30T12:21:52;101418.16;;;21.35;59.16
17936;BME280;9093;52.062;4.508;2023-07-30T12:24:32;101425.47;;;21.44;58.71
17936;BME280;9093;52.062;4.508;2023-07-30T12:27:12;101433.66;;;21.54;58.61
17936;BME280;9093;52.062;4.508;2023-07-30T12:29:53;101433.97;;;21.60;58.46
17936;BME280;9093;52.062;4.508;2023-07-30T12:32:33;101445.28;;;21.65;58.11
17936;BME280;9093;52.062;4.508;2023-07-30T12:35:13;101430.41;;;21.70;58.34
17936;BME280;9093;52.062;4.508;2023-07-30T12:37:54;101425.28;;;21.86;58.39
17936;BME280;9093;52.062;4.508;2023-07-30T12:40:34;101439.88;;;21.94;57.64
17936;BME280;9093;52.062;4.508;2023-07-30T12:43:16;101443.16;;;21.88;57.74
17936;BME280;9093;52.062;4.508;2023-07-30T12:45:56;101432.00;;;21.82;57.94
17936;BME280;9093;52.062;4.508;2023-07-30T12:48:36;101450.03;;;21.83;57.68
17936;BME280;9093;52.062;4.508;2023-07-30T12:51:17;101434.44;;;21.85;57.42
17936;BME280;9093;52.062;4.508;2023-07-30T12:53:57;101445.31;;;21.94;57.47
17936;BME280;9093;52.062;4.508;2023-07-30T12:56:37;101443.38;;;22.06;56.94
17936;BME280;9093;52.062;4.508;2023-07-30T12:59:18;101438.53;;;22.00;56.42
17936;BME280;9093;52.062;4.508;2023-07-30T13:01:58;101449.47;;;21.89;56.12
17936;BME280;9093;52.062;4.508;2023-07-30T13:04:38;101446.31;;;21.84;56.24
17936;BME280;9093;52.062;4.508;2023-07-30T13:07:19;101454.31;;;21.76;56.08
17936;BME280;9093;52.062;4.508;2023-07-30T13:10:06;101446.56;;;21.61;56.18
17936;BME280;9093;52.062;4.508;2023-07-30T13:12:47;101458.13;;;21.54;56.32
17936;BME280;9093;52.062;4.508;2023-07-30T13:15:28;101468.38;;;21.50;56.44
17936;BME280;9093;52.062;4.508;2023-07-30T13:18:08;101471.22;;;21.39;56.63
17936;BME280;9093;52.062;4.508;2023-07-30T13:20:48;101448.06;;;21.35;56.41
17936;BME280;9093;52.062;4.508;2023-07-30T13:23:29;101445.88;;;21.29;56.42
17936;BME280;9093;52.062;4.508;2023-07-30T13:26:10;101443.72;;;21.23;56.65
17936;BME280;9093;52.062;4.508;2023-07-30T13:28:50;101463.59;;;21.23;56.69
17936;BME280;9093;52.062;4.508;2023-07-30T13:31:31;101455.56;;;21.22;56.45
17936;BME280;9093;52.062;4.508;2023-07-30T13:34:11;101451.88;;;21.23;56.57
17936;BME280;9093;52.062;4.508;2023-07-30T13:36:51;101440.00;;;21.24;56.89
17936;BME280;9093;52.062;4.508;2023-07-30T13:39:32;101447.13;;;21.25;56.90
17936;BME280;9093;52.062;4.508;2023-07-30T13:42:12;101448.72;;;21.27;57.08
17936;BME280;9093;52.062;4.508;2023-07-30T13:44:52;101453.63;;;21.34;57.05
17936;BME280;9093;52.062;4.508;2023-07-30T13:47:33;101460.22;;;21.41;56.89
17936;BME280;9093;52.062;4.508;2023-07-30T13:50:13;101459.97;;;21.53;56.61
17936;BME280;9093;52.062;4.508;2023-07-30T13:52:53;101455.72;;;21.60;56.73
17936;BME280;9093;52.062;4.508;2023-07-30T13:55:34;101451.16;;;21.71;57.02
17936;BME280;9093;52.062;4.508;2023-07-30T13:58:14;101482.63;;;21.73;56.62
17936;BME280;9093;52.062;4.508;2023-07-30T14:00:54;101456.63;;;21.80;56.58
17936;BME280;9093;52.062;4.508;2023-07-30T14:03:35;101463.06;;;21.79;56.36
17936;BME280;9093;52.062;4.508;2023-07-30T14:06:16;101457.75;;;21.78;56.38
17936;BME280;9093;52.062;4.508;2023-07-30T14:08:57;101459.91;;;21.84;56.05
17936;BME280;9093;52.062;4.508;2023-07-30T14:11:39;101461.78;;;21.93;56.41